Time;durP1;ratioP1;P1;durP2;ratioP2;P2;SDS_P1;SDS_P2;PMS_P1;PMS_P2;Temp;Humidity;BMP_temperature;BMP_pressure;BME280_temperature;BME280_humidity;BME280_pressure;Samples;Min_cycle;Max_cycle;Signal;HPM_P1;HPM_P2
2024/04/06 00:01:51;;;;;;;5.10;1.33;;;14.90;99.90;;;;;;4997140;28;20023;-60
2024/04/06 00:04:17;;;;;;;4.35;1.30;;;14.90;99.90;;;;;;5000986;28;20045;-60
2024/04/06 00:06:43;;;;;;;3.95;1.13;;;14.90;99.90;;;;;;4998721;28;20026;-60
2024/04/06 00:09:11;;;;;;;3.42;1.17;;;14.90;99.90;;;;;;5005293;28;20026;-60
2024/04/06 00:11:37;;;;;;;4.10;1.08;;;14.90;99.90;;;;;;5001571;28;20037;-62
2024/04/06 00:14:02;;;;;;;3.47;1.15;;;14.90;99.90;;;;;;5004694;28;20069;-62
2024/04/06 00:16:28;;;;;;;7.50;1.33;;;14.80;99.90;;;;;;5009309;28;20033;-63
2024/04/06 00:18:54;;;;;;;3.33;1.10;;;14.80;99.90;;;;;;5005459;28;20039;-63
2024/04/06 00:21:22;;;;;;;4.22;1.27;;;14.90;99.90;;;;;;5001155;28;20057;-62
2024/04/06 00:23:47;;;;;;;4.30;1.00;;;14.80;99.90;;;;;;5003208;28;20030;-63
2024/04/06 00:26:13;;;;;;;4.68;1.45;;;14.90;99.90;;;;;;5000931;28;20033;-62
2024/04/06 00:28:41;;;;;;;5.25;1.40;;;14.90;99.90;;;;;;5004105;28;20084;-63
2024/04/06 00:31:06;;;;;;;7.10;1.52;;;14.90;99.90;;;;;;5004858;28;20030;-63
2024/04/06 00:33:32;;;;;;;4.75;1.60;;;14.90;99.90;;;;;;5001263;28;20519;-62
2024/04/06 00:36:00;;;;;;;5.75;1.63;;;14.90;99.90;;;;;;5005166;28;20022;-63
2024/04/06 00:38:27;;;;;;;6.20;1.58;;;14.90;99.90;;;;;;5002838;28;20082;-63
2024/04/06 00:40:53;;;;;;;3.88;1.30;;;14.90;99.90;;;;;;5003427;28;20030;-63
2024/04/06 00:43:19;;;;;;;3.88;1.25;;;14.90;99.90;;;;;;5003530;28;20034;-62
2024/04/06 00:45:44;;;;;;;4.47;1.40;;;14.80;99.90;;;;;;4999673;28;20408;-62
2024/04/06 00:48:11;;;;;;;5.18;1.27;;;14.80;99.90;;;;;;5005483;28;20030;-62
2024/04/06 00:50:38;;;;;;;3.50;1.30;;;14.70;99.90;;;;;;5011276;28;20030;-63
2024/04/06 00:53:04;;;;;;;4.07;1.25;;;14.70;99.90;;;;;;5001195;28;20030;-63
2024/04/06 00:55:30;;;;;;;5.28;1.30;;;14.70;99.90;;;;;;5004527;28;20098;-63
2024/04/06 00:57:55;;;;;;;4.45;1.48;;;14.70;99.90;;;;;;5002818;28;20093;-63
2024/04/06 01:00:21;;;;;;;5.05;1.33;;;14.70;99.90;;;;;;5002870;28;20057;-63
2024/04/06 01:02:47;;;;;;;7.45;1.40;;;14.70;99.90;;;;;;5002971;28;20084;-63
2024/04/06 01:05:12;;;;;;;4.57;1.30;;;14.70;99.90;;;;;;5001228;28;20030;-63
2024/04/06 01:07:42;;;;;;;5.93;1.30;;;14.70;99.90;;;;;;5000027;28;20545;-63
2024/04/06 01:10:09;;;;;;;5.85;1.50;;;14.60;99.90;;;;;;5000885;28;20034;-63
2024/04/06 01:12:35;;;;;;;5.40;1.40;;;14.60;99.90;;;;;;5004818;28;20041;-62
2024/04/06 01:15:01;;;;;;;4.93;1.30;;;14.60;99.90;;;;;;5000900;28;20026;-62
2024/04/06 01:17:27;;;;;;;7.25;1.40;;;14.50;99.90;;;;;;5004270;28;20026;-62
2024/04/06 01:19:53;;;;;;;5.88;1.50;;;14.60;99.90;;;;;;5001678;28;20084;-62
2024/04/06 01:22:19;;;;;;;6.15;1.50;;;14.60;99.90;;;;;;5001025;28;20101;-60
2024/04/06 01:24:44;;;;;;;6.05;1.40;;;14.60;99.90;;;;;;5003265;28;20067;-61
2024/04/06 01:27:10;;;;;;;4.90;1.50;;;14.60;99.90;;;;;;5001205;28;20035;-60
2024/04/06 01:29:36;;;;;;;6.88;1.58;;;14.60;99.90;;;;;;5004498;28;20053;-60
2024/04/06 01:32:01;;;;;;;5.32;1.60;;;14.50;99.90;;;;;;4998833;28;20030;-60
2024/04/06 01:34:27;;;;;;;6.32;1.65;;;14.50;99.90;;;;;;5003764;28;20477;-60
2024/04/06 01:36:52;;;;;;;4.35;1.50;;;14.50;99.90;;;;;;5003846;28;20089;-60
2024/04/06 01:39:18;;;;;;;5.10;1.65;;;14.50;99.90;;;;;;5001976;28;20026;-60
2024/04/06 01:41:55;;;;;;;4.63;1.60;;;14.50;99.90;;;;;;5001966;28;20433;-60
2024/04/06 01:44:21;;;;;;;4.95;1.70;;;14.50;99.90;;;;;;5001252;28;20632;-60
2024/04/06 01:46:47;;;;;;;6.80;2.13;;;14.40;99.90;;;;;;5000221;28;20492;-60
2024/04/06 01:49:13;;;;;;;4.97;1.67;;;14.30;99.90;;;;;;5009955;28;20030;-60
2024/04/06 01:51:39;;;;;;;5.00;1.50;;;14.20;99.90;;;;;;5000125;28;20058;-60
2024/04/06 01:54:04;;;;;;;4.80;1.65;;;14.20;99.90;;;;;;5003201;28;20050;-60
2024/04/06 01:56:32;;;;;;;8.63;1.90;;;14.20;99.90;;;;;;5002827;28;20541;-60
2024/04/06 01:58:58;;;;;;;6.22;1.63;;;14.10;99.90;;;;;;5003439;28;20053;-60
2024/04/06 02:01:23;;;;;;;4.90;1.63;;;13.90;99.90;;;;;;4998952;28;20065;-60
2024/04/06 02:03:49;;;;;;;6.88;1.70;;;13.80;99.90;;;;;;5000235;28;20032;-60
2024/04/06 02:06:16;;;;;;;6.65;1.85;;;13.80;99.90;;;;;;5001393;28;20034;-60
2024/04/06 02:08:42;;;;;;;6.80;1.80;;;13.70;99.90;;;;;;5002620;28;20030;-60
2024/04/06 02:11:08;;;;;;;7.00;1.90;;;13.60;99.90;;;;;;5000662;28;20493;-60
2024/04/06 02:13:34;;;;;;;7.28;1.70;;;13.50;99.90;;;;;;5003493;28;20160;-60
2024/04/06 02:16:00;;;;;;;7.00;1.77;;;13.40;99.90;;;;;;5000172;28;20030;-60
2024/04/06 02:18:26;;;;;;;6.28;1.80;;;13.30;99.90;;;;;;5003421;28;20494;-60
2024/04/06 02:20:52;;;;;;;7.13;1.70;;;13.30;99.90;;;;;;4999289;28;20061;-60
2024/04/06 02:23:17;;;;;;;6.22;1.98;;;13.20;99.90;;;;;;5008926;28;20030;-60
2024/04/06 02:25:43;;;;;;;5.82;1.90;;;13.10;99.90;;;;;;5001951;28;20030;-60
2024/04/06 02:28:09;;;;;;;5.85;2.10;;;13.20;99.90;;;;;;5000155;28;20158;-60
2024/04/06 02:30:37;;;;;;;6.05;1.98;;;13.20;99.90;;;;;;5001705;28;20025;-62
2024/04/06 02:33:04;;;;;;;4.70;1.83;;;13.20;99.90;;;;;;5003134;28;20050;-62
2024/04/06 02:35:29;;;;;;;6.47;1.83;;;13.20;99.90;;;;;;5000829;28;20026;-63
2024/04/06 02:37:57;;;;;;;6.47;2.00;;;13.20;99.90;;;;;;4999622;28;20073;-63
2024/04/06 02:40:23;;;;;;;5.22;1.80;;;13.20;99.90;;;;;;5002880;28;20025;-63
2024/04/06 02:42:48;;;;;;;6.30;1.73;;;13.30;99.90;;;;;;5000706;28;20029;-63
2024/04/06 02:45:14;;;;;;;8.43;1.88;;;13.30;99.90;;;;;;4998609;28;20033;-63
2024/04/06 02:47:42;;;;;;;6.55;1.90;;;13.40;99.90;;;;;;5003462;28;20030;-63
2024/04/06 02:50:10;;;;;;;6.35;1.75;;;13.40;99.90;;;;;;5001755;28;20026;-63
2024/04/06 02:52:36;;;;;;;9.23;1.67;;;13.40;99.90;;;;;;5000461;28;20027;-63
2024/04/06 02:55:04;;;;;;;4.85;1.50;;;13.40;99.90;;;;;;5002437;28;20030;-63
2024/04/06 02:57:30;;;;;;;5.43;1.83;;;13.40;99.90;;;;;;4999537;28;20022;-63
2024/04/06 02:59:55;;;;;;;5.70;1.80;;;13.40;99.90;;;;;;5002367;28;20038;-63
2024/04/06 03:02:22;;;;;;;7.13;1.90;;;13.40;99.90;;;;;;4997875;28;20030;-63
2024/04/06 03:04:48;;;;;;;5.63;1.80;;;13.30;99.90;;;;;;5000256;28;20366;-63
2024/04/06 03:07:14;;;;;;;5.63;2.08;;;13.30;99.90;;;;;;5000745;28;20034;-63
2024/04/06 03:09:40;;;;;;;6.25;1.98;;;13.30;99.90;;;;;;5001140;28;20033;-62
2024/04/06 03:12:06;;;;;;;7.43;2.00;;;13.40;99.90;;;;;;5000367;28;20029;-62
2024/04/06 03:14:32;;;;;;;5.38;1.95;;;13.30;99.90;;;;;;5001642;28;20481;-62
2024/04/06 03:16:58;;;;;;;7.20;2.20;;;13.30;99.90;;;;;;4999392;28;20030;-62
2024/04/06 03:19:26;;;;;;;6.70;2.03;;;13.30;99.90;;;;;;5001737;28;20026;-62
2024/04/06 03:21:52;;;;;;;5.75;1.90;;;13.30;99.90;;;;;;4997679;28;20124;-64
2024/04/06 03:24:18;;;;;;;8.40;2.35;;;;;;;;;;5001124;28;20069;-63
2024/04/06 03:26:44;;;;;;;5.40;1.88;;;13.30;99.90;;;;;;4999892;28;20105;-63
2024/04/06 03:29:11;;;;;;;5.03;1.90;;;13.30;99.90;;;;;;5000418;28;20041;-63
2024/04/06 03:31:36;;;;;;;6.40;2.28;;;13.30;99.90;;;;;;4998374;28;20194;-63
2024/04/06 03:34:02;;;;;;;6.22;1.83;;;13.30;99.90;;;;;;4999657;28;20046;-63
2024/04/06 03:36:28;;;;;;;5.30;1.75;;;13.20;99.90;;;;;;5001644;28;20034;-63
2024/04/06 03:38:53;;;;;;;5.60;1.67;;;13.20;99.90;;;;;;5002238;28;20022;-63
2024/04/06 03:41:19;;;;;;;6.90;1.90;;;13.20;99.90;;;;;;4998892;28;20049;-62
2024/04/06 03:43:44;;;;;;;4.35;1.40;;;13.20;99.90;;;;;;5004602;28;20397;-62
2024/04/06 03:46:10;;;;;;;3.90;1.40;;;13.20;99.90;;;;;;5003883;28;20026;-62
2024/04/06 03:48:36;;;;;;;9.05;1.73;;;13.20;99.90;;;;;;5010175;28;20061;-63
2024/04/06 03:51:03;;;;;;;5.85;1.70;;;13.30;99.90;;;;;;5006721;28;20118;-63
2024/04/06 03:53:31;;;;;;;8.68;2.25;;;13.30;99.90;;;;;;5004345;28;20109;-63
2024/04/06 03:55:56;;;;;;;4.68;1.40;;;13.30;99.90;;;;;;5003154;28;20098;-63
2024/04/06 03:58:22;;;;;;;7.07;1.70;;;13.30;99.90;;;;;;5005307;28;20430;-62
2024/04/06 04:00:47;;;;;;;6.68;1.50;;;13.40;99.90;;;;;;5004382;28;20080;-63
2024/04/06 04:03:14;;;;;;;5.13;1.60;;;13.30;99.90;;;;;;4998528;28;20031;-62
2024/04/06 04:05:42;;;;;;;5.93;1.55;;;13.30;99.90;;;;;;5004275;28;20045;-62
2024/04/06 04:08:08;;;;;;;6.25;1.70;;;13.30;99.90;;;;;;5003474;28;20021;-62
2024/04/06 04:10:36;;;;;;;6.93;1.58;;;13.20;99.90;;;;;;5003980;28;20498;-62
2024/04/06 04:13:02;;;;;;;4.95;1.80;;;13.20;99.90;;;;;;5004423;28;20022;-62
2024/04/06 04:15:31;;;;;;;6.18;1.95;;;13.30;99.90;;;;;;5002500;28;20118;-63
2024/04/06 04:17:57;;;;;;;7.65;2.00;;;13.30;99.90;;;;;;5004666;28;20038;-63
2024/04/06 04:20:24;;;;;;;4.65;1.55;;;13.30;99.90;;;;;;5000464;28;20022;-62
2024/04/06 04:22:50;;;;;;;5.03;2.05;;;13.40;99.90;;;;;;5005529;28;20022;-62
2024/04/06 04:25:16;;;;;;;3.80;1.20;;;13.40;99.90;;;;;;5001453;28;20141;-62
2024/04/06 04:27:41;;;;;;;5.35;1.50;;;13.40;99.90;;;;;;5003864;28;20473;-62
2024/04/06 04:30:07;;;;;;;5.78;1.80;;;13.40;99.90;;;;;;5003743;28;20045;-62
2024/04/06 04:32:33;;;;;;;8.15;1.73;;;13.40;99.90;;;;;;4998181;28;20042;-63
2024/04/06 04:34:58;;;;;;;4.53;1.48;;;13.40;99.90;;;;;;5003079;28;20524;-62
2024/04/06 04:37:24;;;;;;;5.65;1.58;;;13.40;99.90;;;;;;5008177;28;20461;-62
2024/04/06 04:39:53;;;;;;;4.20;1.60;;;13.40;99.90;;;;;;5002051;28;20031;-63
2024/04/06 04:42:18;;;;;;;4.10;1.35;;;13.40;99.90;;;;;;5004474;28;20052;-63
2024/04/06 04:44:44;;;;;;;8.38;1.75;;;13.40;99.90;;;;;;5001701;28;20109;-63
2024/04/06 04:47:10;;;;;;;5.35;1.73;;;13.40;99.90;;;;;;5004015;28;20409;-63
2024/04/06 04:49:35;;;;;;;5.30;1.60;;;13.30;99.90;;;;;;5008463;28;20121;-63
2024/04/06 04:52:01;;;;;;;4.53;1.60;;;13.30;99.90;;;;;;5001767;28;20084;-62
2024/04/06 04:54:29;;;;;;;5.40;1.60;;;13.30;99.90;;;;;;5002499;28;20101;-62
2024/04/06 04:56:54;;;;;;;6.15;1.63;;;13.30;99.90;;;;;;5005382;28;20113;-62
2024/04/06 04:59:20;;;;;;;6.60;1.65;;;13.30;99.90;;;;;;5001722;28;20538;-62
2024/04/06 05:01:45;;;;;;;4.22;1.52;;;13.30;99.90;;;;;;4998805;28;20036;-62
2024/04/06 05:04:14;;;;;;;6.88;1.70;;;13.30;99.90;;;;;;5002167;28;20033;-62
2024/04/06 05:06:39;;;;;;;4.47;1.50;;;13.30;99.90;;;;;;5000174;28;20079;-62
2024/04/06 05:09:07;;;;;;;6.43;1.85;;;13.30;99.90;;;;;;4998033;28;20056;-62
2024/04/06 05:11:33;;;;;;;4.07;1.38;;;13.30;99.90;;;;;;4998814;28;20049;-62
2024/04/06 05:14:03;;;;;;;4.88;1.60;;;13.40;99.90;;;;;;4998545;28;20494;-62
2024/04/06 05:16:29;;;;;;;4.20;1.50;;;13.40;99.90;;;;;;4998802;28;20117;-62
2024/04/06 05:18:54;;;;;;;8.65;1.85;;;13.30;99.90;;;;;;4999354;28;20126;-62
2024/04/06 05:21:20;;;;;;;4.22;1.55;;;13.40;99.90;;;;;;4999716;28;20090;-62
2024/04/06 05:23:46;;;;;;;5.70;1.52;;;13.30;99.90;;;;;;5004564;28;20030;-62
2024/04/06 05:26:11;;;;;;;6.47;1.60;;;13.30;99.90;;;;;;5000975;28;20022;-62
2024/04/06 05:28:37;;;;;;;5.40;1.83;;;13.30;99.90;;;;;;4996093;28;20057;-62
2024/04/06 05:31:03;;;;;;;6.63;1.92;;;13.30;99.90;;;;;;5000965;28;20038;-62
2024/04/06 05:33:28;;;;;;;5.50;1.80;;;13.30;99.90;;;;;;4999182;28;20054;-62
2024/04/06 05:35:54;;;;;;;5.20;1.90;;;13.30;99.90;;;;;;5006269;28;20022;-62
2024/04/06 05:38:21;;;;;;;6.70;1.80;;;13.30;99.90;;;;;;5003881;28;20040;-62
2024/04/06 05:40:47;;;;;;;6.13;1.92;;;;;;;;;;5006873;28;20021;-62
2024/04/06 05:43:13;;;;;;;5.82;1.75;;;13.60;99.90;;;;;;5000812;28;20022;-62
2024/04/06 05:45:40;;;;;;;8.73;1.70;;;13.60;99.90;;;;;;5004906;28;20081;-62
2024/04/06 05:48:07;;;;;;;7.20;2.00;;;13.70;99.90;;;;;;5003770;28;20026;-62
2024/04/06 05:50:34;;;;;;;5.03;1.80;;;13.80;99.90;;;;;;5007706;28;20030;-62
2024/04/06 05:53:00;;;;;;;5.13;1.73;;;13.90;99.90;;;;;;5002692;28;20040;-62
2024/04/06 05:55:26;;;;;;;6.57;2.00;;;14.00;99.90;;;;;;4999396;28;20109;-62
2024/04/06 05:57:52;;;;;;;6.35;1.65;;;14.10;99.90;;;;;;4999774;28;20022;-62
2024/04/06 06:00:18;;;;;;;8.27;1.92;;;14.20;99.90;;;;;;5001476;28;20034;-60
2024/04/06 06:02:46;;;;;;;4.63;1.58;;;14.30;99.90;;;;;;5001374;28;20109;-60
2024/04/06 06:05:15;;;;;;;24.50;2.38;;;14.40;99.90;;;;;;5003419;28;20049;-60
2024/04/06 06:07:41;;;;;;;5.38;1.58;;;14.50;99.90;;;;;;5001556;28;20130;-60
2024/04/06 06:10:09;;;;;;;4.80;1.85;;;14.60;99.90;;;;;;5000456;28;20115;-60
2024/04/06 06:12:35;;;;;;;7.82;1.80;;;14.70;99.90;;;;;;4999940;28;20030;-60
2024/04/06 06:15:01;;;;;;;8.00;1.85;;;14.80;99.90;;;;;;5000875;28;20111;-60
2024/04/06 06:17:26;;;;;;;9.02;2.03;;;14.80;99.90;;;;;;5005414;28;20461;-60
2024/04/06 06:19:52;;;;;;;6.45;1.85;;;14.90;99.90;;;;;;5003976;28;20417;-60
2024/04/06 06:22:17;;;;;;;6.88;1.60;;;15.00;99.90;;;;;;4997411;28;20034;-60
2024/04/06 06:24:45;;;;;;;5.43;1.70;;;15.00;99.90;;;;;;5002908;28;20531;-60
2024/04/06 06:27:11;;;;;;;5.35;1.85;;;15.00;99.90;;;;;;5001272;28;20057;-60
2024/04/06 06:29:37;;;;;;;6.10;1.92;;;14.90;99.90;;;;;;5000708;28;20026;-60
2024/04/06 06:32:04;;;;;;;6.45;1.83;;;15.00;99.90;;;;;;4999480;28;20457;-60
2024/04/06 06:34:32;;;;;;;8.43;1.73;;;14.90;99.90;;;;;;5002068;28;20041;-60
2024/04/06 06:36:58;;;;;;;5.72;1.73;;;14.90;99.90;;;;;;5002636;28;20031;-60
2024/04/06 06:39:23;;;;;;;5.60;1.75;;;14.90;99.90;;;;;;4998955;28;20025;-61
2024/04/06 06:41:51;;;;;;;11.15;3.05;;;14.90;99.90;;;;;;5001118;28;20021;-61
2024/04/06 06:44:16;;;;;;;8.55;2.25;;;14.90;99.90;;;;;;5001088;28;20100;-60
2024/04/06 06:46:42;;;;;;;6.82;2.10;;;14.90;99.90;;;;;;5005242;28;20104;-60
2024/04/06 06:49:09;;;;;;;5.10;1.50;;;15.00;99.90;;;;;;5007991;28;20034;-60
2024/04/06 06:51:35;;;;;;;4.97;1.77;;;15.10;99.90;;;;;;4995881;28;20030;-60
2024/04/06 06:54:01;;;;;;;8.43;1.70;;;15.20;99.90;;;;;;5005903;28;20705;-65
2024/04/06 06:56:26;;;;;;;5.30;1.42;;;15.20;99.90;;;;;;5000338;28;20141;-62
2024/04/06 06:58:52;;;;;;;5.53;1.50;;;15.40;99.90;;;;;;4999887;28;20353;-62
2024/04/06 07:01:18;;;;;;;5.10;1.70;;;15.70;99.90;;;;;;4999013;28;20023;-61
2024/04/06 07:03:51;;;;;;;8.02;1.70;;;15.90;99.90;;;;;;5003829;28;20033;-63
2024/04/06 07:06:17;;;;;;;5.95;1.80;;;16.20;99.90;;;;;;4997984;28;20073;-62
2024/04/06 07:08:43;;;;;;;5.45;1.50;;;16.50;99.90;;;;;;4999656;28;20050;-61
2024/04/06 07:11:09;;;;;;;11.02;1.88;;;16.80;99.90;;;;;;4997939;28;20030;-62
2024/04/06 07:13:35;;;;;;;4.60;1.70;;;16.90;99.90;;;;;;5003681;28;20045;-59
2024/04/06 07:16:09;;;;;;;6.35;1.70;;;17.10;99.90;;;;;;4997491;28;20017;-63
2024/04/06 07:18:42;;;;;;;13.93;2.35;;;17.10;99.90;;;;;;4998826;28;20032;-60
2024/04/06 07:21:13;;;;;;;16.50;2.65;;;17.10;99.90;;;;;;4998269;28;20072;-63
2024/04/06 07:23:38;;;;;;;4.88;1.63;;;17.10;99.90;;;;;;5006700;28;20065;-59
2024/04/06 07:26:06;;;;;;;6.03;1.63;;;17.00;99.90;;;;;;5002000;28;20438;-60
2024/04/06 07:28:33;;;;;;;6.97;1.83;;;16.90;99.90;;;;;;4993109;28;20040;-60
2024/04/06 07:30:59;;;;;;;11.18;2.33;;;16.70;99.90;;;;;;4998278;28;20033;-60
2024/04/06 07:33:27;;;;;;;13.32;2.15;;;16.60;99.90;;;;;;4995669;28;20054;-66
2024/04/06 07:35:52;;;;;;;6.20;1.63;;;16.50;99.90;;;;;;4992573;28;20053;-65
2024/04/06 07:38:18;;;;;;;6.53;1.65;;;16.60;99.90;;;;;;4999309;28;20026;-68
2024/04/06 07:40:43;;;;;;;6.03;1.65;;;16.80;99.90;;;;;;4997129;28;20041;-67
2024/04/06 07:43:09;;;;;;;4.18;1.60;;;17.00;99.90;;;;;;5001044;28;20028;-67
2024/04/06 07:45:34;;;;;;;5.47;1.40;;;17.30;99.90;;;;;;4997724;28;20121;-68
2024/04/06 07:48:03;;;;;;;7.18;1.60;;;17.50;99.90;;;;;;5002039;28;20030;-68
2024/04/06 07:50:29;;;;;;;3.90;1.30;;;17.70;99.90;;;;;;4997980;28;20030;-68
2024/04/06 07:52:55;;;;;;;4.82;1.52;;;17.90;99.90;;;;;;5001380;28;20110;-68
2024/04/06 07:55:21;;;;;;;4.20;1.40;;;18.10;99.90;;;;;;4998491;28;20034;-68
2024/04/06 07:57:47;;;;;;;5.47;1.80;;;18.30;99.90;;;;;;5000083;28;20084;-67
2024/04/06 08:00:13;;;;;;;4.82;1.50;;;18.40;99.90;;;;;;4998103;28;20386;-67
2024/04/06 08:02:42;;;;;;;7.30;1.73;;;18.50;99.90;;;;;;4997856;28;20026;-67
2024/04/06 08:05:08;;;;;;;5.78;1.50;;;18.70;99.90;;;;;;4998228;28;20034;-67
2024/04/06 08:07:34;;;;;;;5.80;1.50;;;18.80;99.90;;;;;;5000550;28;20075;-67
2024/04/06 08:10:03;;;;;;;4.05;1.45;;;18.90;99.90;;;;;;4997282;28;20096;-67
2024/04/06 08:12:32;;;;;;;6.93;1.50;;;19.00;99.90;;;;;;4997334;28;20184;-67
2024/04/06 08:14:58;;;;;;;4.72;1.40;;;19.00;99.90;;;;;;5004664;28;20023;-67
2024/04/06 08:17:26;;;;;;;8.20;1.58;;;19.10;99.90;;;;;;5000856;28;20033;-67
2024/04/06 08:19:53;;;;;;;4.70;1.70;;;19.20;99.90;;;;;;4998851;28;20409;-66
2024/04/06 08:22:18;;;;;;;6.13;1.50;;;19.30;99.90;;;;;;4998613;28;20042;-67
2024/04/06 08:24:44;;;;;;;3.65;1.48;;;19.30;99.90;;;;;;4999990;28;20069;-62
2024/04/06 08:27:10;;;;;;;5.72;1.48;;;19.40;99.90;;;;;;4999505;28;20478;-62
2024/04/06 08:29:35;;;;;;;7.28;1.67;;;19.40;99.90;;;;;;5001236;28;20042;-62
2024/04/06 08:32:03;;;;;;;4.85;1.50;;;19.40;99.90;;;;;;5002024;28;20698;-61
2024/04/06 08:34:29;;;;;;;5.18;1.45;;;19.40;99.90;;;;;;5004434;28;20042;-61
2024/04/06 08:36:56;;;;;;;5.43;1.63;;;19.40;99.90;;;;;;5004344;28;20036;-63
2024/04/06 08:39:23;;;;;;;5.47;1.70;;;19.40;99.90;;;;;;4996946;28;20030;-62
2024/04/06 08:41:54;;;;;;;4.53;1.40;;;19.40;99.90;;;;;;5000079;28;20026;-62
2024/04/06 08:44:33;;;;;;;6.75;1.80;;;19.40;99.90;;;;;;4999785;28;20037;-62
2024/04/06 08:47:00;;;;;;;5.10;1.50;;;19.40;99.90;;;;;;5003805;28;20038;-62
2024/04/06 08:49:27;;;;;;;5.25;1.60;;;19.50;99.90;;;;;;5004199;28;20038;-63
2024/04/06 08:51:56;;;;;;;3.83;1.40;;;19.50;99.90;;;;;;5002056;28;20080;-62
2024/04/06 08:54:22;;;;;;;5.63;1.35;;;19.50;99.90;;;;;;5000390;28;20022;-62
2024/04/06 08:56:48;;;;;;;4.85;1.40;;;19.50;99.90;;;;;;5003717;28;20026;-62
2024/04/06 08:59:16;;;;;;;4.63;1.33;;;19.50;99.90;;;;;;5001461;28;20014;-62
2024/04/06 09:01:42;;;;;;;4.25;1.45;;;19.50;99.90;;;;;;5002664;28;20026;-62
2024/04/06 09:04:09;;;;;;;4.43;1.50;;;19.50;99.90;;;;;;5001181;28;20527;-62
2024/04/06 09:06:39;;;;;;;3.95;1.40;;;19.50;99.90;;;;;;5007565;28;20061;-62
2024/04/06 09:09:06;;;;;;;5.10;1.50;;;19.50;99.90;;;;;;5002798;28;20064;-63
2024/04/06 09:11:32;;;;;;;6.43;1.60;;;19.50;99.90;;;;;;4995337;28;20030;-63
2024/04/06 09:14:02;;;;;;;4.38;1.42;;;19.50;99.90;;;;;;5000347;28;20121;-63
2024/04/06 09:16:28;;;;;;;4.55;1.40;;;19.50;99.90;;;;;;5003205;28;20025;-63
2024/04/06 09:18:53;;;;;;;5.03;1.45;;;19.50;99.90;;;;;;5000090;28;20698;-62
2024/04/06 09:21:19;;;;;;;5.70;1.42;;;19.50;99.90;;;;;;5001246;28;20477;-62
2024/04/06 09:23:49;;;;;;;5.03;1.48;;;19.50;99.90;;;;;;5000593;28;20133;-62
2024/04/06 09:26:21;;;;;;;5.72;1.50;;;19.50;99.90;;;;;;5002362;28;20027;-62
2024/04/06 09:28:53;;;;;;;4.82;1.40;;;19.50;99.90;;;;;;5000810;28;20026;-62
2024/04/06 09:31:23;;;;;;;5.32;1.40;;;19.50;99.90;;;;;;5001853;28;20091;-62
2024/04/06 09:33:59;;;;;;;5.85;1.65;;;19.50;99.90;;;;;;4999532;28;20050;-63
2024/04/06 09:36:25;;;;;;;4.25;1.40;;;19.50;99.90;;;;;;4999624;28;20041;-62
2024/04/06 09:38:53;;;;;;;5.53;1.55;;;19.50;99.90;;;;;;5003242;28;20599;-62
2024/04/06 09:41:21;;;;;;;4.82;1.40;;;19.50;99.90;;;;;;4997866;28;20030;-61
2024/04/06 09:43:49;;;;;;;5.45;1.63;;;19.50;99.90;;;;;;4999885;28;20030;-61
2024/04/06 09:46:19;;;;;;;4.75;1.30;;;19.60;99.90;;;;;;5001922;28;20030;-61
2024/04/06 09:48:46;;;;;;;5.50;1.50;;;19.50;99.90;;;;;;5006670;28;20370;-61
2024/04/06 09:51:12;;;;;;;3.90;1.20;;;19.50;99.90;;;;;;5002078;28;20470;-61
2024/04/06 09:53:39;;;;;;;5.35;1.42;;;19.60;99.90;;;;;;5000250;28;20034;-61
2024/04/06 09:56:07;;;;;;;6.15;1.45;;;19.60;99.90;;;;;;5000689;28;20026;-62
2024/04/06 09:58:33;;;;;;;5.50;1.40;;;19.60;99.90;;;;;;5001235;28;20119;-61
2024/04/06 10:01:09;;;;;;;5.55;1.73;;;19.60;99.90;;;;;;5002061;28;20089;-61
2024/04/06 10:03:48;;;;;;;6.18;1.60;;;19.70;99.90;;;;;;4999991;28;20030;-62
2024/04/06 10:06:18;;;;;;;5.18;1.40;;;19.70;99.90;;;;;;4999564;28;20762;-61
2024/04/06 10:08:47;;;;;;;;;;;19.70;99.90;;;;;;5002419;28;20032;-61
2024/04/06 10:11:24;;;;;;;5.47;1.33;;;19.70;99.90;;;;;;4998256;28;19909;-61
2024/04/06 10:14:09;;;;;;;5.65;1.48;;;19.70;99.90;;;;;;4999050;28;20026;-61
2024/04/06 10:16:39;;;;;;;5.47;1.48;;;19.70;99.90;;;;;;5000476;28;20105;-61
2024/04/06 10:19:07;;;;;;;4.60;1.40;;;19.70;99.90;;;;;;5000476;28;20033;-62
2024/04/06 10:21:35;;;;;;;4.93;1.40;;;19.70;99.90;;;;;;4998281;28;20019;-61
2024/04/06 10:24:12;;;;;;;4.72;1.40;;;19.70;99.90;;;;;;5001313;28;20052;-62
2024/04/06 10:26:50;;;;;;;4.60;1.40;;;19.70;99.90;;;;;;5000717;28;20026;-62
2024/04/06 10:29:16;;;;;;;5.18;1.52;;;19.70;99.90;;;;;;4999310;28;20030;-62
2024/04/06 10:31:42;;;;;;;7.32;1.35;;;19.80;99.90;;;;;;4997526;28;20030;-62
2024/04/06 10:34:08;;;;;;;5.55;1.48;;;19.80;99.90;;;;;;4994981;28;20192;-62
2024/04/06 10:36:34;;;;;;;5.20;1.52;;;19.80;99.90;;;;;;5000190;28;20042;-62
2024/04/06 10:39:01;;;;;;;6.72;1.48;;;19.80;99.90;;;;;;5001967;28;20030;-62
2024/04/06 10:41:26;;;;;;;4.90;1.45;;;19.90;99.90;;;;;;5002698;28;20072;-63
2024/04/06 10:43:52;;;;;;;5.70;1.48;;;20.00;99.90;;;;;;4999830;28;21029;-63
2024/04/06 10:46:19;;;;;;;4.00;1.30;;;20.00;99.90;;;;;;4996532;28;20037;-63
2024/04/06 10:48:44;;;;;;;3.53;1.23;;;20.00;99.90;;;;;;4996574;28;20149;-63
2024/04/06 10:51:12;;;;;;;4.65;1.40;;;20.10;99.90;;;;;;5002577;28;20120;-63
2024/04/06 10:53:37;;;;;;;4.03;1.40;;;20.10;99.90;;;;;;4997481;28;20041;-64
2024/04/06 10:56:04;;;;;;;5.25;1.40;;;20.10;99.90;;;;;;5002195;28;20485;-63
2024/04/06 10:58:30;;;;;;;3.72;1.30;;;20.20;99.90;;;;;;4999759;28;20026;-63
2024/04/06 11:00:55;;;;;;;3.55;1.20;;;20.20;99.90;;;;;;5001964;28;20041;-63
2024/04/06 11:03:23;;;;;;;8.32;1.50;;;20.20;99.90;;;;;;4999847;28;20040;-64
2024/04/06 11:05:51;;;;;;;4.13;1.23;;;20.20;99.90;;;;;;4997470;28;20029;-63
2024/04/06 11:08:17;;;;;;;4.63;1.50;;;20.20;99.90;;;;;;4998954;28;20037;-63
2024/04/06 11:10:44;;;;;;;4.32;1.40;;;20.30;99.90;;;;;;4995132;28;20571;-63
2024/04/06 11:13:13;;;;;;;4.38;1.35;;;20.30;99.90;;;;;;4998434;28;20018;-63
2024/04/06 11:15:40;;;;;;;4.10;1.37;;;20.30;99.90;;;;;;4994479;28;20030;-63
2024/04/06 11:18:07;;;;;;;6.10;1.25;;;20.30;99.90;;;;;;5000809;28;20048;-63
2024/04/06 11:20:33;;;;;;;4.28;1.40;;;20.30;99.90;;;;;;4998989;28;20331;-63
2024/04/06 11:22:58;;;;;;;3.97;1.17;;;20.30;99.70;;;;;;5000713;28;20026;-63
2024/04/06 11:25:26;;;;;;;6.03;1.50;;;20.30;99.60;;;;;;4992236;28;20123;-63
2024/04/06 11:27:53;;;;;;;5.15;1.17;;;20.40;99.20;;;;;;4999403;28;20034;-63
2024/04/06 11:30:20;;;;;;;5.10;1.50;;;20.40;98.90;;;;;;5000528;28;20026;-64
2024/04/06 11:32:50;;;;;;;4.53;1.20;;;20.40;98.60;;;;;;4997129;28;20046;-63
2024/04/06 11:35:15;;;;;;;;;;;20.40;98.90;;;;;;5000857;28;20026;-63
2024/04/06 11:37:41;;;;;;;5.05;1.33;;;20.50;99.10;;;;;;5003417;28;19912;-62
2024/04/06 11:40:10;;;;;;;6.50;1.50;;;20.50;99.10;;;;;;4996699;28;20036;-63
2024/04/06 11:42:35;;;;;;;6.40;1.50;;;20.50;99.00;;;;;;4997722;28;20029;-63
2024/04/06 11:45:02;;;;;;;3.17;1.25;;;20.50;99.00;;;;;;4999696;28;20023;-63
2024/04/06 11:47:28;;;;;;;4.78;1.38;;;20.50;99.00;;;;;;4999577;28;20088;-63
2024/04/06 11:49:54;;;;;;;6.18;1.40;;;20.50;98.80;;;;;;5004003;28;20786;-63
2024/04/06 11:52:19;;;;;;;5.45;1.40;;;20.50;98.80;;;;;;4998788;28;20048;-61
2024/04/06 11:54:45;;;;;;;3.35;1.20;;;20.50;99.00;;;;;;4997879;28;20038;-61
2024/04/06 11:57:11;;;;;;;4.82;1.58;;;20.50;99.00;;;;;;5001063;28;20030;-61
2024/04/06 11:59:36;;;;;;;3.70;1.20;;;20.50;99.00;;;;;;4997570;28;20030;-61
2024/04/06 12:02:02;;;;;;;3.78;1.20;;;20.50;98.70;;;;;;5001788;28;20092;-61
2024/04/06 12:04:28;;;;;;;4.97;1.30;;;20.50;98.50;;;;;;5000932;28;20110;-61
2024/04/06 12:06:53;;;;;;;2.75;1.02;;;20.50;98.50;;;;;;5003264;28;20022;-62
2024/04/06 12:09:19;;;;;;;4.25;1.10;;;20.50;98.30;;;;;;5001444;28;20088;-61
2024/04/06 12:11:45;;;;;;;4.63;1.45;;;20.60;98.40;;;;;;5001486;28;20061;-61
2024/04/06 12:14:11;;;;;;;3.75;1.20;;;20.50;98.30;;;;;;5004690;28;20100;-62
2024/04/06 12:16:36;;;;;;;3.15;1.15;;;20.50;98.40;;;;;;5000814;28;20042;-61
2024/04/06 12:19:02;;;;;;;4.60;1.30;;;20.50;98.30;;;;;;5003937;28;20469;-61
2024/04/06 12:21:31;;;;;;;3.88;1.27;;;20.50;98.20;;;;;;4999924;28;20025;-61
2024/04/06 12:23:56;;;;;;;2.80;1.15;;;20.60;98.10;;;;;;5002955;28;20035;-61
2024/04/06 12:26:24;;;;;;;3.65;1.40;;;20.60;97.90;;;;;;5001604;28;20111;-61
2024/04/06 12:28:50;;;;;;;4.80;1.20;;;20.50;98.00;;;;;;5002093;28;20097;-61
2024/04/06 12:31:17;;;;;;;2.97;1.13;;;20.50;98.00;;;;;;5002988;28;20428;-61
2024/04/06 12:33:43;;;;;;;6.10;1.27;;;20.50;98.10;;;;;;5000956;28;20074;-61
2024/04/06 12:36:11;;;;;;;3.78;1.20;;;20.50;98.00;;;;;;5006692;28;20053;-61
2024/04/06 12:38:37;;;;;;;3.25;1.10;;;20.50;98.00;;;;;;5001273;28;20076;-61
2024/04/06 12:41:03;;;;;;;5.20;1.17;;;20.50;97.90;;;;;;4999864;28;20096;-61
2024/04/06 12:43:29;;;;;;;4.70;1.20;;;20.50;97.70;;;;;;5000765;28;20027;-61
2024/04/06 12:45:54;;;;;;;4.82;1.08;;;20.50;97.70;;;;;;5002919;28;20058;-61